createdAt,value
2017-11-12T00:02:22.203Z,85.81
2017-11-12T00:04:48.489Z,85.73
2017-11-12T00:07:14.740Z,85.45
2017-11-12T00:09:40.972Z,85.55
2017-11-12T00:12:07.237Z,86.18
2017-11-12T00:14:33.468Z,86.95
2017-11-12T00:17:00.822Z,86.72
2017-11-12T00:19:27.095Z,87.55
2017-11-12T00:21:53.334Z,87.89
2017-11-12T00:24:19.568Z,87.78
2017-11-12T00:26:45.832Z,87.93
2017-11-12T00:29:12.038Z,87.08
2017-11-12T00:31:38.277Z,86.55
2017-11-12T00:34:04.551Z,86.79
2017-11-12T00:36:30.812Z,86.99
2017-11-12T00:38:57.035Z,87.04
2017-11-12T00:41:23.422Z,87.00
2017-11-12T00:43:49.676Z,87.49
2017-11-12T00:46:15.941Z,87.84
2017-11-12T00:48:42.271Z,87.26
2017-11-12T00:51:08.623Z,86.94
2017-11-12T00:53:34.850Z,86.74
2017-11-12T00:56:01.136Z,86.96
2017-11-12T00:58:27.382Z,87.23
2017-11-12T01:00:53.631Z,86.50
2017-11-12T01:03:19.921Z,86.75
2017-11-12T01:05:46.158Z,86.74
2017-11-12T01:08:12.404Z,86.88
2017-11-12T01:10:38.723Z,86.58
2017-11-12T01:13:04.958Z,86.22
2017-11-12T01:15:31.205Z,86.01
2017-11-12T01:17:57.479Z,86.68
2017-11-12T01:20:23.709Z,86.88
2017-11-12T01:22:49.969Z,87.37
2017-11-12T01:25:16.239Z,86.86
2017-11-12T01:27:42.534Z,86.64
2017-11-12T01:30:08.775Z,86.96
2017-11-12T01:32:35.173Z,87.21
2017-11-12T01:35:01.407Z,87.67
2017-11-12T01:37:27.663Z,89.19
2017-11-12T01:39:53.907Z,89.54
2017-11-12T01:42:20.133Z,89.63
2017-11-12T01:44:46.359Z,89.54
2017-11-12T01:47:12.615Z,89.96
2017-11-12T01:49:38.867Z,89.48
2017-11-12T01:52:05.107Z,89.31
2017-11-12T01:54:31.379Z,89.59
2017-11-12T01:56:57.638Z,89.66
2017-11-12T01:59:23.856Z,88.82
2017-11-12T02:01:50.147Z,89.81
2017-11-12T02:04:16.394Z,90.04
2017-11-12T02:06:42.649Z,90.50
2017-11-12T02:09:09.047Z,90.89
2017-11-12T02:11:35.285Z,90.48
2017-11-12T02:14:01.517Z,90.48
2017-11-12T02:16:27.855Z,89.86
2017-11-12T02:18:54.105Z,89.99
2017-11-12T02:21:20.346Z,89.75
2017-11-12T02:23:46.643Z,90.08
2017-11-12T02:26:12.895Z,90.33
2017-11-12T02:28:39.153Z,90.17
2017-11-12T02:31:05.429Z,90.68
2017-11-12T02:33:31.674Z,90.71
2017-11-12T02:35:57.930Z,91.45
2017-11-12T02:38:24.216Z,91.98
2017-11-12T02:40:50.457Z,91.81
2017-11-12T02:43:16.700Z,91.34
2017-11-12T02:45:42.978Z,91.54
2017-11-12T02:48:09.223Z,91.57
2017-11-12T02:50:35.460Z,91.16
2017-11-12T02:53:01.901Z,91.37
2017-11-12T02:55:28.156Z,91.31
2017-11-12T02:57:54.397Z,91.85
2017-11-12T03:00:20.658Z,91.69
2017-11-12T03:02:46.886Z,91.20
2017-11-12T03:05:13.150Z,91.54
2017-11-12T03:07:39.452Z,91.36
2017-11-12T03:10:05.689Z,91.73
2017-11-12T03:12:31.927Z,92.10
2017-11-12T03:14:58.202Z,92.33
2017-11-12T03:17:24.448Z,91.45
2017-11-12T03:19:50.689Z,92.54
2017-11-12T03:22:16.995Z,92.38
2017-11-12T03:24:43.252Z,92.20
2017-11-12T03:27:09.508Z,93.15
2017-11-12T03:29:35.781Z,93.04
2017-11-12T03:32:02.019Z,93.40
2017-11-12T03:34:28.259Z,93.68
2017-11-12T03:36:54.548Z,92.91
2017-11-12T03:39:20.895Z,92.37
2017-11-12T03:41:47.145Z,91.94
2017-11-12T03:44:13.468Z,90.96
2017-11-12T03:46:39.720Z,91.34
2017-11-12T03:49:05.958Z,90.93
2017-11-12T03:51:32.248Z,90.92
2017-11-12T03:53:58.483Z,90.85
2017-11-12T03:56:24.720Z,89.48
2017-11-12T03:58:51.015Z,90.08
2017-11-12T04:01:17.265Z,90.30
2017-11-12T04:03:43.547Z,90.78
2017-11-12T04:06:09.843Z,90.16
2017-11-12T04:08:36.104Z,90.82
2017-11-12T04:11:02.362Z,90.04
2017-11-12T04:13:28.648Z,90.87
2017-11-12T04:15:54.914Z,92.01
2017-11-12T04:18:21.180Z,92.26
2017-11-12T04:20:47.468Z,92.29
2017-11-12T04:23:13.729Z,91.59
2017-11-12T04:25:39.987Z,91.60
2017-11-12T04:28:06.280Z,91.28
2017-11-12T04:30:32.515Z,90.70
2017-11-12T04:32:58.758Z,90.78
2017-11-12T04:35:25.034Z,91.66
2017-11-12T04:37:51.289Z,92.09
2017-11-12T04:40:17.520Z,92.07
2017-11-12T04:42:43.809Z,91.63
2017-11-12T04:45:10.045Z,92.24
2017-11-12T04:47:36.274Z,92.56
2017-11-12T04:50:02.585Z,91.29
2017-11-12T04:52:28.842Z,90.32
2017-11-12T04:54:55.082Z,91.26
2017-11-12T04:57:21.366Z,92.38
2017-11-12T04:59:47.606Z,92.25
2017-11-12T05:02:13.853Z,91.26
2017-11-12T05:04:40.142Z,90.32
2017-11-12T05:07:06.389Z,89.72
2017-11-12T05:09:32.641Z,90.58
2017-11-12T05:11:58.913Z,90.93
2017-11-12T05:14:25.162Z,90.83
2017-11-12T05:16:51.391Z,91.28
2017-11-12T05:19:17.681Z,90.21
2017-11-12T05:21:43.933Z,90.74
2017-11-12T05:24:10.174Z,89.70
2017-11-12T05:26:36.449Z,88.36
2017-11-12T05:29:02.709Z,88.48
2017-11-12T05:31:28.948Z,88.21
2017-11-12T05:33:55.251Z,88.90
2017-11-12T05:36:21.510Z,88.75
2017-11-12T05:38:47.767Z,87.09
2017-11-12T05:41:14.055Z,85.98
2017-11-12T05:43:40.312Z,85.72
2017-11-12T05:46:06.550Z,85.80
2017-11-12T05:48:32.843Z,86.96
2017-11-12T05:50:59.085Z,83.12
2017-11-12T05:53:25.320Z,79.83
2017-11-12T05:55:51.610Z,80.14
2017-11-12T05:58:17.849Z,80.95
2017-11-12T06:00:44.085Z,81.23
2017-11-12T06:03:10.372Z,82.68
2017-11-12T06:05:36.630Z,83.06
2017-11-12T06:08:02.880Z,81.68
2017-11-12T06:10:29.164Z,82.59
2017-11-12T06:12:55.401Z,82.69
2017-11-12T06:15:21.644Z,83.96
2017-11-12T06:17:47.916Z,83.64
2017-11-12T06:20:14.149Z,83.60
2017-11-12T06:22:40.404Z,83.03
2017-11-12T06:25:06.656Z,83.37
2017-11-12T06:27:32.893Z,83.59
2017-11-12T06:29:59.110Z,83.90
2017-11-12T06:32:25.390Z,84.66
2017-11-12T06:34:51.624Z,83.48
2017-11-12T06:37:17.864Z,83.39
2017-11-12T06:39:44.142Z,83.41
2017-11-12T06:42:10.486Z,81.22
2017-11-12T06:44:36.717Z,76.41
2017-11-12T06:47:02.989Z,69.42
2017-11-12T06:49:29.207Z,66.10
2017-11-12T06:51:55.450Z,62.50
2017-11-12T06:54:21.727Z,58.34
2017-11-12T06:56:47.955Z,55.13
2017-11-12T06:59:14.178Z,52.46
2017-11-12T07:01:40.442Z,51.51
2017-11-12T07:04:06.670Z,53.94
2017-11-12T07:06:32.902Z,55.33
2017-11-12T07:08:59.173Z,53.27
2017-11-12T07:11:25.412Z,52.58
2017-11-12T07:13:51.679Z,50.38
2017-11-12T07:16:17.936Z,47.93
2017-11-12T07:18:44.142Z,48.66
2017-11-12T07:21:10.361Z,47.06
2017-11-12T07:23:36.615Z,45.26
2017-11-12T07:26:02.844Z,43.23
2017-11-12T07:28:29.056Z,43.20
2017-11-12T07:30:55.326Z,43.28
2017-11-12T07:33:21.556Z,42.65
2017-11-12T07:35:47.785Z,42.69
2017-11-12T07:38:14.057Z,42.20
2017-11-12T07:40:40.291Z,41.77
2017-11-12T07:43:06.518Z,41.31
2017-11-12T07:45:32.775Z,41.53
2017-11-12T07:47:58.982Z,41.65
2017-11-12T07:50:25.195Z,40.69
2017-11-12T07:52:51.472Z,41.25
2017-11-12T07:55:17.695Z,41.52
2017-11-12T07:57:43.897Z,41.13
2017-11-12T08:00:10.163Z,41.98
2017-11-12T08:02:36.398Z,42.78
2017-11-12T08:05:02.632Z,42.40
2017-11-12T08:07:28.953Z,41.88
2017-11-12T08:09:55.197Z,42.42
2017-11-12T08:12:21.418Z,42.50
2017-11-12T08:14:47.712Z,42.96
2017-11-12T08:17:13.949Z,42.41
2017-11-12T08:19:40.204Z,41.58
2017-11-12T08:22:06.467Z,41.48
2017-11-12T08:24:32.683Z,38.57
2017-11-12T08:26:58.918Z,38.50
2017-11-12T08:29:25.209Z,39.41
2017-11-12T08:31:51.410Z,39.35
2017-11-12T08:34:17.632Z,38.82
2017-11-12T08:36:43.919Z,37.42
2017-11-12T08:39:10.149Z,36.70
2017-11-12T08:41:36.385Z,38.58
2017-11-12T08:44:02.679Z,36.04
2017-11-12T08:46:28.907Z,34.24
2017-11-12T08:48:55.149Z,33.58
2017-11-12T08:51:21.415Z,34.34
2017-11-12T08:53:47.636Z,35.14
2017-11-12T08:56:13.973Z,32.85
2017-11-12T08:58:40.249Z,30.99
2017-11-12T09:01:06.482Z,31.03
2017-11-12T09:03:32.723Z,30.53
2017-11-12T09:05:58.977Z,30.40
2017-11-12T09:08:25.320Z,30.29
2017-11-12T09:10:51.545Z,29.77
2017-11-12T09:13:17.821Z,29.26
2017-11-12T09:15:44.055Z,30.92
2017-11-12T09:18:10.271Z,29.90
2017-11-12T09:20:36.539Z,27.48
2017-11-12T09:23:02.765Z,27.46
2017-11-12T09:25:29.031Z,26.65
2017-11-12T09:27:55.300Z,26.74
2017-11-12T09:30:21.522Z,25.98
2017-11-12T09:32:47.758Z,24.41
2017-11-12T09:35:14.032Z,24.85
2017-11-12T09:37:40.255Z,24.31
2017-11-12T09:40:06.488Z,24.81
2017-11-12T09:42:32.767Z,23.56
2017-11-12T09:44:58.991Z,22.83
2017-11-12T09:47:25.272Z,23.72
2017-11-12T09:49:51.562Z,25.22
2017-11-12T09:52:17.787Z,24.70
2017-11-12T09:54:44.255Z,24.80
2017-11-12T09:57:10.526Z,26.47
2017-11-12T09:59:37.148Z,26.26
2017-11-12T10:02:03.601Z,26.17
2017-11-12T10:04:30.075Z,27.19
2017-11-12T10:06:56.307Z,26.82
2017-11-12T10:09:22.525Z,25.76
2017-11-12T10:11:48.783Z,25.36
2017-11-12T10:14:15.003Z,25.53
2017-11-12T10:16:41.363Z,25.92
2017-11-12T10:19:07.637Z,26.49
2017-11-12T10:21:33.856Z,25.77
2017-11-12T10:24:00.315Z,26.97
2017-11-12T10:26:26.758Z,26.61
2017-11-12T10:28:53.199Z,26.03
2017-11-12T10:31:19.409Z,26.21
2017-11-12T10:33:45.813Z,27.05
2017-11-12T10:36:12.240Z,27.08
2017-11-12T10:38:38.842Z,26.95
2017-11-12T10:41:05.543Z,26.68
2017-11-12T10:43:32.151Z,26.91
2017-11-12T10:45:58.785Z,28.00
2017-11-12T10:48:25.287Z,27.53
2017-11-12T10:50:51.645Z,29.55
2017-11-12T10:53:18.189Z,29.19
2017-11-12T10:55:44.615Z,29.56
2017-11-12T10:58:11.155Z,29.22
2017-11-12T11:00:37.589Z,30.13
2017-11-12T11:03:04.114Z,31.44
2017-11-12T11:05:30.534Z,31.79
2017-11-12T11:07:56.977Z,32.16
2017-11-12T11:10:23.631Z,32.25
2017-11-12T11:12:50.268Z,31.63
2017-11-12T11:15:16.777Z,30.17
2017-11-12T11:17:43.196Z,30.14
2017-11-12T11:20:09.607Z,32.18
2017-11-12T11:22:35.888Z,32.02
2017-11-12T11:25:02.440Z,29.60
2017-11-12T11:27:29.039Z,28.59
2017-11-12T11:29:55.486Z,27.69
2017-11-12T11:32:22.148Z,28.49
2017-11-12T11:34:48.643Z,28.04
2017-11-12T11:37:15.082Z,28.84
2017-11-12T11:39:41.749Z,26.88
2017-11-12T11:42:08.190Z,28.79
2017-11-12T11:44:34.403Z,28.60
2017-11-12T11:47:00.904Z,28.56
2017-11-12T11:49:27.275Z,29.09
2017-11-12T11:51:53.560Z,30.69
2017-11-12T11:54:19.946Z,31.15
2017-11-12T11:56:46.583Z,33.08
2017-11-12T11:59:13.015Z,35.89
2017-11-12T12:01:39.493Z,34.61
2017-11-12T12:04:05.947Z,35.24
2017-11-12T12:06:32.372Z,35.03
2017-11-12T12:08:58.832Z,35.02
2017-11-12T12:11:25.250Z,36.13
2017-11-12T12:13:51.766Z,36.18
2017-11-12T12:16:18.458Z,35.31
2017-11-12T12:18:44.892Z,35.38
2017-11-12T12:21:11.532Z,35.95
2017-11-12T12:23:38.160Z,36.48
2017-11-12T12:26:05.012Z,36.48
2017-11-12T12:28:31.433Z,36.41
2017-11-12T12:30:57.933Z,37.27
2017-11-12T12:33:24.390Z,36.99
2017-11-12T12:35:50.796Z,38.37
2017-11-12T12:38:17.336Z,38.85
2017-11-12T12:40:43.614Z,38.97
2017-11-12T12:43:10.224Z,39.12
2017-11-12T12:45:36.742Z,39.45
2017-11-12T12:48:03.187Z,40.35
2017-11-12T12:50:29.701Z,39.94
2017-11-12T12:52:56.395Z,40.25
2017-11-12T12:55:22.831Z,40.43
2017-11-12T12:57:49.308Z,40.58
2017-11-12T13:00:15.845Z,39.92
2017-11-12T13:02:42.289Z,39.11
2017-11-12T13:05:08.730Z,37.93
2017-11-12T13:07:35.370Z,37.84
2017-11-12T13:10:01.626Z,36.73
2017-11-12T13:12:28.066Z,38.15
2017-11-12T13:14:54.546Z,38.30
2017-11-12T13:17:20.991Z,38.87
2017-11-12T13:19:47.432Z,40.27
2017-11-12T13:22:13.954Z,41.25
2017-11-12T13:24:40.416Z,41.23
2017-11-12T13:27:06.873Z,41.43
2017-11-12T13:29:33.350Z,41.56
2017-11-12T13:31:59.793Z,42.59
2017-11-12T13:34:26.378Z,43.29
2017-11-12T13:36:52.981Z,44.42
2017-11-12T13:39:19.420Z,44.14
2017-11-12T13:41:45.705Z,44.70
2017-11-12T13:44:12.111Z,45.16
2017-11-12T13:46:38.598Z,45.88
2017-11-12T13:49:05.041Z,45.44
2017-11-12T13:51:31.409Z,46.40
2017-11-12T13:53:58.023Z,47.46
2017-11-12T13:56:24.482Z,47.61
2017-11-12T13:58:51.123Z,48.11
2017-11-12T14:01:17.550Z,47.99
2017-11-12T14:03:44.165Z,49.45
2017-11-12T14:06:10.828Z,50.43
2017-11-12T14:08:37.326Z,49.73
2017-11-12T14:11:03.845Z,50.11
2017-11-12T14:13:30.127Z,50.36
2017-11-12T14:15:56.753Z,51.17
2017-11-12T14:18:23.406Z,51.71
2017-11-12T14:20:50.011Z,52.24
2017-11-12T14:23:16.429Z,53.12
2017-11-12T14:25:42.704Z,54.10
2017-11-12T14:28:08.980Z,54.81
2017-11-12T14:30:35.213Z,55.31
2017-11-12T14:33:01.772Z,55.83
2017-11-12T14:35:28.440Z,56.26
2017-11-12T14:37:55.057Z,56.91
2017-11-12T14:40:21.496Z,56.94
2017-11-12T14:42:48.148Z,56.96
2017-11-12T14:45:14.784Z,57.49
2017-11-12T14:47:41.402Z,57.84
2017-11-12T14:50:08.112Z,59.58
2017-11-12T14:52:34.331Z,60.41
2017-11-12T14:55:00.901Z,61.40
2017-11-12T14:57:27.417Z,61.71
2017-11-12T14:59:53.797Z,62.50
2017-11-12T15:02:20.121Z,62.70
2017-11-12T15:04:46.378Z,64.89
2017-11-12T15:07:12.892Z,65.04
2017-11-12T15:09:39.504Z,66.39
2017-11-12T15:12:05.920Z,66.98
2017-11-12T15:14:32.172Z,68.04
2017-11-12T15:16:58.391Z,69.16
2017-11-12T15:19:24.668Z,67.16
2017-11-12T15:21:50.936Z,68.40
2017-11-12T15:24:17.379Z,68.37
2017-11-12T15:26:43.798Z,70.80
2017-11-12T15:29:10.240Z,70.16
2017-11-12T15:31:36.684Z,71.04
2017-11-12T15:34:03.099Z,72.04
2017-11-12T15:36:29.377Z,70.24
2017-11-12T15:38:55.983Z,70.15
2017-11-12T15:41:22.421Z,72.24
2017-11-12T15:43:48.703Z,72.92
2017-11-12T15:46:14.946Z,73.77
2017-11-12T15:48:41.187Z,73.66
2017-11-12T15:51:07.469Z,75.29
2017-11-12T15:53:33.960Z,74.08
2017-11-12T15:56:00.403Z,74.73
2017-11-12T15:58:27.070Z,73.83
2017-11-12T16:00:53.687Z,76.86
2017-11-12T16:03:20.327Z,76.55
2017-11-12T16:05:46.586Z,77.48
2017-11-12T16:08:13.187Z,75.49
2017-11-12T16:10:39.446Z,77.26
2017-11-12T16:13:06.079Z,76.88
2017-11-12T16:15:32.308Z,77.50
2017-11-12T16:17:58.929Z,80.01
2017-11-12T16:20:25.583Z,82.07
2017-11-12T16:22:51.807Z,82.30
2017-11-12T16:25:18.055Z,80.58
2017-11-12T16:27:44.329Z,80.06
2017-11-12T16:30:10.542Z,78.87
2017-11-12T16:32:36.772Z,79.33
2017-11-12T16:35:03.043Z,79.66
2017-11-12T16:37:29.270Z,80.08
2017-11-12T16:39:55.504Z,80.16
2017-11-12T16:42:21.759Z,80.36
2017-11-12T16:44:48.140Z,80.21
2017-11-12T16:47:14.381Z,80.84
2017-11-12T16:49:40.747Z,81.05
2017-11-12T16:52:07.342Z,81.32
2017-11-12T16:54:33.563Z,81.09
2017-11-12T16:56:59.824Z,81.31
2017-11-12T16:59:26.093Z,80.29
2017-11-12T17:01:52.313Z,82.21
2017-11-12T17:04:18.580Z,81.93
2017-11-12T17:06:44.793Z,81.92
2017-11-12T17:09:11.036Z,82.44
2017-11-12T17:11:37.265Z,82.45
2017-11-12T17:14:03.473Z,82.19
2017-11-12T17:16:29.747Z,82.62
2017-11-12T17:18:55.992Z,82.47
2017-11-12T17:21:22.526Z,83.13
2017-11-12T17:23:49.011Z,83.58
2017-11-12T17:26:15.378Z,83.44
2017-11-12T17:28:41.773Z,83.30
2017-11-12T17:31:08.048Z,83.40
2017-11-12T17:33:34.270Z,84.20
2017-11-12T17:36:00.675Z,83.47
2017-11-12T17:38:27.138Z,84.67
2017-11-12T17:40:53.776Z,84.48
2017-11-12T17:43:20.427Z,84.55
2017-11-12T17:45:47.238Z,83.02
2017-11-12T17:48:13.678Z,84.07
2017-11-12T17:50:40.129Z,83.38
2017-11-12T17:53:06.641Z,82.32
2017-11-12T17:55:33.156Z,82.62
2017-11-12T17:57:59.600Z,82.64
2017-11-12T18:00:26.274Z,81.67
2017-11-12T18:02:52.876Z,81.50
2017-11-12T18:05:19.157Z,82.09
2017-11-12T18:07:45.783Z,81.73
2017-11-12T18:10:11.996Z,81.87
2017-11-12T18:12:38.210Z,81.45
2017-11-12T18:15:04.467Z,80.42
2017-11-12T18:17:30.683Z,80.25
2017-11-12T18:19:56.913Z,80.50
2017-11-12T18:22:23.164Z,81.03
2017-11-12T18:24:49.373Z,80.48
2017-11-12T18:27:15.611Z,80.05
2017-11-12T18:29:42.092Z,79.73
2017-11-12T18:32:08.479Z,80.47
2017-11-12T18:34:34.708Z,80.70
2017-11-12T18:37:00.988Z,80.18
2017-11-12T18:39:27.203Z,81.43
2017-11-12T18:41:53.651Z,81.70
2017-11-12T18:44:19.931Z,81.43
2017-11-12T18:46:46.160Z,81.01
2017-11-12T18:49:12.381Z,80.92
2017-11-12T18:51:38.717Z,82.03
2017-11-12T18:54:05.356Z,82.00
2017-11-12T18:56:31.978Z,81.60
2017-11-12T18:58:58.633Z,81.79
2017-11-12T19:01:25.139Z,82.03
2017-11-12T19:03:51.554Z,82.74
2017-11-12T19:06:17.927Z,81.38
2017-11-12T19:08:44.132Z,81.49
2017-11-12T19:11:10.390Z,81.29
2017-11-12T19:13:37.026Z,81.62
2017-11-12T19:16:03.638Z,81.47
2017-11-12T19:18:29.896Z,82.42
2017-11-12T19:20:56.316Z,83.18
2017-11-12T19:23:22.556Z,82.88
2017-11-12T19:25:48.991Z,82.80
2017-11-12T19:28:15.423Z,83.46
2017-11-12T19:30:41.911Z,82.98
2017-11-12T19:33:08.288Z,82.89
2017-11-12T19:35:34.536Z,82.67
2017-11-12T19:38:00.780Z,82.45
2017-11-12T19:40:27.235Z,82.54
2017-11-12T19:42:53.509Z,82.08
2017-11-12T19:45:19.747Z,81.99
2017-11-12T19:47:46.040Z,82.21
2017-11-12T19:50:12.300Z,81.58
2017-11-12T19:52:38.533Z,81.90
2017-11-12T19:55:04.815Z,82.85
2017-11-12T19:57:31.148Z,82.84
2017-11-12T19:59:57.602Z,82.01
2017-11-12T20:02:23.851Z,81.94
2017-11-12T20:04:50.288Z,81.78
2017-11-12T20:07:16.793Z,81.56
2017-11-12T20:09:43.051Z,80.09
2017-11-12T20:12:09.365Z,80.42
2017-11-12T20:14:35.606Z,79.67
2017-11-12T20:17:01.878Z,79.51
2017-11-12T20:19:28.141Z,80.64
2017-11-12T20:21:54.366Z,80.44
2017-11-12T20:24:20.635Z,80.54
2017-11-12T20:26:46.865Z,80.34
2017-11-12T20:29:13.085Z,80.44
2017-11-12T20:31:39.302Z,80.60
2017-11-12T20:34:05.632Z,81.44
2017-11-12T20:36:31.872Z,81.46
2017-11-12T20:38:58.259Z,81.16
2017-11-12T20:41:24.705Z,80.79
2017-11-12T20:43:50.935Z,81.34
2017-11-12T20:46:17.196Z,82.13
2017-11-12T20:48:43.445Z,81.72
2017-11-12T20:51:09.680Z,81.67
2017-11-12T20:53:35.948Z,81.74
2017-11-12T20:56:02.181Z,81.43
2017-11-12T20:58:28.412Z,81.08
2017-11-12T21:00:54.686Z,81.32
2017-11-12T21:03:20.930Z,81.17
2017-11-12T21:05:47.157Z,80.93
2017-11-12T21:08:13.421Z,81.49
2017-11-12T21:10:39.651Z,80.72
2017-11-12T21:13:05.900Z,80.47
2017-11-12T21:15:32.178Z,80.25
2017-11-12T21:17:58.392Z,80.48
2017-11-12T21:20:24.808Z,80.09
2017-11-12T21:22:51.080Z,80.39
2017-11-12T21:25:17.291Z,80.56
2017-11-12T21:27:43.507Z,80.52
2017-11-12T21:30:09.764Z,80.35
2017-11-12T21:32:35.984Z,79.96
2017-11-12T21:35:02.194Z,79.54
2017-11-12T21:37:28.448Z,79.30
2017-11-12T21:39:54.782Z,78.68
2017-11-12T21:42:20.997Z,77.70
2017-11-12T21:44:47.274Z,77.72
2017-11-12T21:47:13.495Z,77.85
2017-11-12T21:49:39.718Z,79.52
2017-11-12T21:52:06.005Z,76.80
2017-11-12T21:54:32.383Z,76.85
2017-11-12T21:56:58.608Z,75.28
2017-11-12T21:59:24.886Z,77.48
2017-11-12T22:01:52.132Z,76.06
2017-11-12T22:04:18.344Z,75.13
2017-11-12T22:06:44.583Z,74.70
2017-11-12T22:09:10.797Z,71.56
2017-11-12T22:11:37.016Z,70.25
2017-11-12T22:14:03.280Z,65.86
2017-11-12T22:16:29.510Z,68.56
2017-11-12T22:18:55.732Z,70.38
2017-11-12T22:21:22.003Z,71.20
2017-11-12T22:23:48.229Z,69.77
2017-11-12T22:26:14.461Z,69.84
2017-11-12T22:28:40.731Z,69.87
2017-11-12T22:31:06.979Z,68.40
2017-11-12T22:33:33.189Z,68.87
2017-11-12T22:35:59.435Z,69.24
2017-11-12T22:38:25.643Z,69.06
2017-11-12T22:40:51.858Z,68.67
2017-11-12T22:43:18.119Z,68.24
2017-11-12T22:45:44.348Z,68.25
2017-11-12T22:48:10.676Z,68.35
2017-11-12T22:50:37.097Z,68.59
2017-11-12T22:53:03.315Z,68.33
2017-11-12T22:55:29.565Z,68.00
2017-11-12T22:57:55.831Z,68.30
2017-11-12T23:00:22.066Z,67.86
2017-11-12T23:02:48.305Z,67.99
2017-11-12T23:05:14.556Z,67.63
2017-11-12T23:07:40.789Z,67.57
2017-11-12T23:10:07.027Z,67.41
2017-11-12T23:12:33.286Z,67.35
2017-11-12T23:14:59.512Z,67.95
2017-11-12T23:17:25.746Z,67.79
2017-11-12T23:19:52.060Z,67.16
2017-11-12T23:22:18.275Z,66.60
2017-11-12T23:24:44.491Z,66.77
2017-11-12T23:27:10.756Z,66.94
2017-11-12T23:29:37.009Z,66.52
2017-11-12T23:32:03.405Z,66.25
2017-11-12T23:34:29.680Z,66.45
2017-11-12T23:36:55.920Z,66.89
2017-11-12T23:39:22.295Z,66.32
2017-11-12T23:41:48.573Z,66.60
2017-11-12T23:44:14.803Z,66.55
2017-11-12T23:46:41.013Z,66.28
2017-11-12T23:49:07.253Z,66.13
2017-11-12T23:51:33.489Z,65.82
2017-11-12T23:53:59.717Z,66.00
2017-11-12T23:56:26.101Z,65.40
2017-11-12T23:58:52.515Z,65.33
